createdAt,value
2022-08-04T00:01:57.012Z,7.43
2022-08-04T00:04:55.204Z,7.00
2022-08-04T00:07:43.918Z,7.20
2022-08-04T00:10:18.416Z,7.22
2022-08-04T00:12:52.848Z,7.37
2022-08-04T00:15:26.902Z,6.97
2022-08-04T00:18:07.187Z,7.25
2022-08-04T00:20:42.764Z,7.93
2022-08-04T00:23:13.087Z,6.90
2022-08-04T00:25:43.566Z,7.20
2022-08-04T00:28:13.804Z,8.23
2022-08-04T00:30:44.769Z,8.23
2022-08-04T00:33:20.365Z,8.10
2022-08-04T00:35:53.047Z,8.40
2022-08-04T00:38:23.831Z,7.97
2022-08-04T00:41:30.518Z,8.00
2022-08-04T00:44:23.765Z,8.68
2022-08-04T00:47:21.038Z,8.65
2022-08-04T00:50:27.875Z,8.40
2022-08-04T00:53:13.884Z,8.38
2022-08-04T00:56:18.912Z,8.27
2022-08-04T00:59:04.776Z,8.63
2022-08-04T01:01:54.097Z,8.15
2022-08-04T01:04:42.659Z,8.55
2022-08-04T01:07:33.960Z,9.47
2022-08-04T01:10:25.811Z,9.23
2022-08-04T01:13:26.123Z,8.13
2022-08-04T01:16:12.099Z,8.00
2022-08-04T01:18:47.648Z,7.75
2022-08-04T01:21:32.764Z,8.18
2022-08-04T01:24:41.031Z,7.53
2022-08-04T01:27:21.414Z,9.30
2022-08-04T01:30:00.953Z,7.53
2022-08-04T01:32:42.526Z,6.05
2022-08-04T01:35:46.921Z,6.13
2022-08-04T01:38:36.117Z,5.03
2022-08-04T01:41:09.724Z,5.60
2022-08-04T01:43:47.411Z,5.82
2022-08-04T01:46:19.317Z,5.22
2022-08-04T01:48:55.318Z,5.22
2022-08-04T01:51:27.341Z,5.25
2022-08-04T01:53:57.135Z,5.80
2022-08-04T01:56:31.160Z,5.90
2022-08-04T01:59:04.450Z,5.00
2022-08-04T02:01:39.273Z,4.60
2022-08-04T02:04:18.104Z,5.63
2022-08-04T02:07:27.814Z,5.72
2022-08-04T02:10:00.152Z,5.75
2022-08-04T02:12:43.488Z,5.43
2022-08-04T02:15:23.025Z,4.87
2022-08-04T02:18:12.606Z,4.57
2022-08-04T02:20:48.453Z,4.47
2022-08-04T02:23:38.009Z,4.20
2022-08-04T02:26:19.225Z,4.65
2022-08-04T02:29:06.146Z,4.40
2022-08-04T02:31:46.001Z,4.72
2022-08-04T02:34:25.663Z,5.30
2022-08-04T02:36:58.593Z,5.25
2022-08-04T02:39:48.460Z,4.70
2022-08-04T02:42:20.741Z,6.82
2022-08-04T02:44:53.661Z,6.22
2022-08-04T02:47:24.241Z,6.63
2022-08-04T02:50:28.658Z,6.20
2022-08-04T02:53:04.361Z,6.20
2022-08-04T02:55:41.968Z,5.75
2022-08-04T02:58:23.021Z,8.82
2022-08-04T03:00:53.685Z,7.45
2022-08-04T03:03:26.681Z,6.20
2022-08-04T03:06:33.229Z,6.50
2022-08-04T03:09:35.274Z,6.23
2022-08-04T03:12:05.495Z,5.50
2022-08-04T03:14:55.901Z,5.10
2022-08-04T03:18:00.143Z,5.88
2022-08-04T03:21:00.622Z,4.97
2022-08-04T03:23:51.101Z,5.43
2022-08-04T03:26:33.821Z,5.50
2022-08-04T03:29:35.196Z,5.10
2022-08-04T03:32:47.900Z,3.88
2022-08-04T03:35:56.423Z,4.90
2022-08-04T03:38:41.261Z,6.00
2022-08-04T03:41:51.848Z,5.40
2022-08-04T03:44:48.381Z,4.73
2022-08-04T03:47:53.923Z,4.18
2022-08-04T03:51:35.428Z,4.03
2022-08-04T03:54:30.226Z,4.28
2022-08-04T03:57:22.294Z,4.50
2022-08-04T04:00:17.906Z,5.35
2022-08-04T04:03:28.751Z,5.00
2022-08-04T04:06:33.268Z,5.25
2022-08-04T04:09:05.425Z,4.55
2022-08-04T04:12:21.026Z,4.82
2022-08-04T04:15:04.841Z,4.60
2022-08-04T04:18:10.948Z,4.32
2022-08-04T04:20:54.458Z,4.93
2022-08-04T04:24:09.028Z,5.80
2022-08-04T04:27:03.700Z,5.60
2022-08-04T04:29:39.427Z,5.40
2022-08-04T04:32:37.740Z,4.95
2022-08-04T04:35:19.906Z,4.18
2022-08-04T04:37:53.746Z,4.60
2022-08-04T04:40:46.257Z,4.70
2022-08-04T04:43:51.351Z,3.88
2022-08-04T04:46:26.859Z,4.18
2022-08-04T04:49:17.980Z,3.90
2022-08-04T04:52:29.266Z,4.55
2022-08-04T04:55:20.947Z,4.60
2022-08-04T04:57:55.380Z,4.05
2022-08-04T05:00:36.225Z,4.50
2022-08-04T05:03:30.473Z,4.70
2022-08-04T05:06:09.370Z,4.78
2022-08-04T05:08:51.176Z,4.53
2022-08-04T05:11:43.693Z,4.32
2022-08-04T05:14:38.054Z,4.18
2022-08-04T05:17:44.965Z,4.40
2022-08-04T05:20:44.331Z,4.55
2022-08-04T05:23:25.085Z,4.57
2022-08-04T05:26:12.406Z,4.20
2022-08-04T05:28:47.247Z,3.85
2022-08-04T05:31:35.027Z,4.25
2022-08-04T05:34:13.417Z,4.28
2022-08-04T05:36:51.028Z,4.15
2022-08-04T05:39:34.110Z,4.28
2022-08-04T05:42:07.384Z,4.03
2022-08-04T05:44:42.068Z,4.30
2022-08-04T05:47:14.846Z,4.05
2022-08-04T05:49:46.326Z,4.05
2022-08-04T05:52:33.275Z,4.30
2022-08-04T05:55:09.267Z,4.13
2022-08-04T05:57:46.266Z,4.60
2022-08-04T06:00:40.246Z,4.45
2022-08-04T06:03:12.807Z,4.10
2022-08-04T06:05:45.387Z,4.65
2022-08-04T06:08:15.986Z,5.40
2022-08-04T06:10:48.307Z,4.20
2022-08-04T06:13:48.088Z,4.47
2022-08-04T06:16:28.567Z,4.10
2022-08-04T06:20:02.864Z,4.38
2022-08-04T06:21:58.529Z,4.10
2022-08-04T06:24:31.426Z,4.55
2022-08-04T06:27:02.469Z,4.22
2022-08-04T06:29:39.665Z,4.70
2022-08-04T06:32:35.719Z,4.23
2022-08-04T06:35:10.465Z,3.97
2022-08-04T06:37:44.237Z,4.55
2022-08-04T06:40:30.759Z,4.95
2022-08-04T06:43:04.578Z,4.10
2022-08-04T06:45:37.987Z,4.22
2022-08-04T06:48:09.906Z,4.68
2022-08-04T06:51:26.462Z,4.38
2022-08-04T06:53:32.307Z,3.60
2022-08-04T06:56:04.150Z,4.13
2022-08-04T06:58:35.350Z,4.20
2022-08-04T07:01:06.541Z,4.63
2022-08-04T07:03:36.709Z,4.78
2022-08-04T07:06:14.137Z,4.28
2022-08-04T07:09:10.468Z,4.20
2022-08-04T07:11:44.717Z,4.45
2022-08-04T07:14:16.551Z,4.43
2022-08-04T07:16:49.986Z,4.60
2022-08-04T07:19:20.627Z,3.63
2022-08-04T07:22:16.161Z,4.18
2022-08-04T07:24:43.354Z,4.00
2022-08-04T07:27:14.127Z,4.00
2022-08-04T07:29:43.858Z,4.30
2022-08-04T07:32:15.858Z,3.90
2022-08-04T07:34:49.669Z,4.13
2022-08-04T07:37:21.853Z,4.53
2022-08-04T07:40:07.388Z,4.10
2022-08-04T07:42:38.838Z,4.15
2022-08-04T07:45:10.695Z,4.25
2022-08-04T07:47:41.751Z,3.90
2022-08-04T07:50:31.966Z,4.00
2022-08-04T07:53:52.918Z,4.10
2022-08-04T07:55:51.508Z,4.00
2022-08-04T07:58:21.358Z,4.43
2022-08-04T08:00:53.096Z,3.88
2022-08-04T08:03:26.480Z,4.38
2022-08-04T08:06:31.042Z,3.67
2022-08-04T08:08:46.564Z,5.15
2022-08-04T08:11:18.171Z,3.58
2022-08-04T08:13:48.361Z,4.03
2022-08-04T08:16:21.874Z,4.68
2022-08-04T08:18:56.488Z,4.28
2022-08-04T08:21:29.482Z,6.55
2022-08-04T08:23:59.703Z,4.28
2022-08-04T08:26:30.214Z,3.88
2022-08-04T08:29:00.696Z,3.92
2022-08-04T08:31:55.593Z,4.20
2022-08-04T08:34:21.631Z,4.40
2022-08-04T08:37:27.926Z,4.38
2022-08-04T08:40:40.800Z,4.22
2022-08-04T08:44:00.266Z,4.93
2022-08-04T08:46:49.861Z,4.53
2022-08-04T08:50:01.786Z,4.60
2022-08-04T08:52:57.450Z,4.25
2022-08-04T08:55:56.625Z,4.80
2022-08-04T08:58:41.006Z,5.82
2022-08-04T09:01:47.442Z,5.43
2022-08-04T09:05:15.585Z,5.20
2022-08-04T09:08:00.385Z,5.43
2022-08-04T09:10:54.805Z,5.27
2022-08-04T09:13:42.864Z,5.77
2022-08-04T09:16:39.205Z,6.43
2022-08-04T09:19:44.944Z,5.80
2022-08-04T09:22:34.304Z,5.82
2022-08-04T09:25:13.684Z,6.10
2022-08-04T09:27:53.584Z,5.50
2022-08-04T09:30:41.180Z,6.07
2022-08-04T09:33:22.624Z,6.22
2022-08-04T09:36:26.856Z,9.23
2022-08-04T09:39:13.358Z,9.48
2022-08-04T09:42:29.292Z,8.45
2022-08-04T09:45:07.944Z,7.63
2022-08-04T09:47:58.662Z,6.18
2022-08-04T09:50:46.887Z,5.60
2022-08-04T09:53:30.784Z,6.38
2022-08-04T09:56:12.143Z,6.47
2022-08-04T09:59:21.605Z,6.27
2022-08-04T10:01:58.966Z,6.80
2022-08-04T10:04:33.607Z,6.32
2022-08-04T10:07:39.345Z,6.85
2022-08-04T10:10:43.425Z,7.07
2022-08-04T10:13:42.153Z,7.35
2022-08-04T10:17:00.625Z,7.88
2022-08-04T10:19:37.327Z,9.73
2022-08-04T10:22:45.020Z,7.78
2022-08-04T10:26:08.316Z,10.45
2022-08-04T10:28:48.066Z,11.35
2022-08-04T10:31:34.726Z,8.98
2022-08-04T10:34:20.626Z,8.68
2022-08-04T10:36:59.892Z,7.28
2022-08-04T10:40:28.066Z,6.50
2022-08-04T10:43:20.814Z,7.37
2022-08-04T10:46:18.106Z,7.28
2022-08-04T10:49:00.626Z,6.85
2022-08-04T10:51:58.111Z,6.63
2022-08-04T10:55:06.065Z,7.00
2022-08-04T10:57:42.965Z,7.63
2022-08-04T11:00:23.757Z,7.82
2022-08-04T11:03:00.949Z,7.10
2022-08-04T11:05:56.708Z,6.85
2022-08-04T11:08:36.868Z,7.60
2022-08-04T11:11:22.746Z,8.07
2022-08-04T11:14:13.285Z,7.95
2022-08-04T11:16:59.266Z,7.70
2022-08-04T11:20:18.562Z,7.28
2022-08-04T11:23:15.306Z,7.07
2022-08-04T11:26:20.408Z,7.10
2022-08-04T11:29:15.268Z,7.70
2022-08-04T11:31:52.225Z,13.87
2022-08-04T11:34:23.185Z,8.90
2022-08-04T11:37:17.707Z,10.43
2022-08-04T11:39:56.047Z,10.15
2022-08-04T11:42:30.067Z,9.10
2022-08-04T11:45:06.391Z,8.77
2022-08-04T11:48:21.204Z,8.80
2022-08-04T11:50:58.207Z,8.02
2022-08-04T11:53:36.882Z,9.15
2022-08-04T11:56:13.823Z,8.57
2022-08-04T11:59:04.310Z,8.43
2022-08-04T12:01:50.004Z,8.27
2022-08-04T12:04:57.697Z,8.82
2022-08-04T12:08:03.937Z,9.18
2022-08-04T12:11:00.776Z,8.55
2022-08-04T12:13:41.804Z,9.27
2022-08-04T12:16:31.478Z,8.77
2022-08-04T12:19:04.946Z,10.70
2022-08-04T12:21:50.466Z,10.52
2022-08-04T12:24:48.725Z,9.98
2022-08-04T12:27:30.490Z,10.40
2022-08-04T12:31:02.137Z,10.90
2022-08-04T12:32:53.548Z,10.73
2022-08-04T12:35:37.849Z,11.40
2022-08-04T12:38:33.335Z,11.67
2022-08-04T12:41:05.268Z,11.10
2022-08-04T12:43:44.867Z,11.98
2022-08-04T12:46:30.647Z,11.67
2022-08-04T12:49:05.186Z,13.70
2022-08-04T12:52:07.834Z,14.50
2022-08-04T12:54:38.058Z,13.93
2022-08-04T12:57:10.206Z,13.00
2022-08-04T12:59:57.895Z,13.18
2022-08-04T13:02:37.058Z,12.75
2022-08-04T13:05:09.697Z,13.40
2022-08-04T13:07:54.964Z,13.18
2022-08-04T13:10:30.350Z,13.00
2022-08-04T13:13:03.608Z,13.48
2022-08-04T13:15:47.431Z,13.68
2022-08-04T13:18:29.535Z,14.80
2022-08-04T13:21:19.400Z,17.65
2022-08-04T13:24:10.654Z,17.55
2022-08-04T13:26:57.837Z,17.45
2022-08-04T13:29:59.806Z,19.05
2022-08-04T13:32:30.144Z,17.63
2022-08-04T13:35:03.505Z,16.80
2022-08-04T13:37:37.426Z,17.73
2022-08-04T13:40:12.487Z,16.85
2022-08-04T13:42:48.119Z,17.95
2022-08-04T13:45:34.868Z,17.63
2022-08-04T13:48:20.203Z,16.50
2022-08-04T13:50:58.088Z,16.60
2022-08-04T13:53:31.080Z,16.95
2022-08-04T13:56:03.625Z,19.77
2022-08-04T13:58:40.737Z,21.10
2022-08-04T14:01:35.252Z,22.45
2022-08-04T14:04:28.816Z,19.48
2022-08-04T14:07:06.744Z,19.83
2022-08-04T14:10:03.627Z,23.42
2022-08-04T14:12:38.499Z,22.02
2022-08-04T14:16:02.341Z,21.85
2022-08-04T14:18:31.305Z,21.13
2022-08-04T14:21:03.888Z,20.07
2022-08-04T14:23:53.913Z,23.08
2022-08-04T14:26:32.494Z,22.65
2022-08-04T14:29:26.372Z,23.17
2022-08-04T14:32:12.476Z,23.20
2022-08-04T14:34:47.025Z,20.90
2022-08-04T14:37:21.068Z,20.85
2022-08-04T14:40:18.879Z,20.98
2022-08-04T14:42:55.475Z,20.70
2022-08-04T14:45:54.151Z,21.77
2022-08-04T14:48:25.197Z,20.90
2022-08-04T14:50:56.944Z,20.95
2022-08-04T14:53:28.065Z,21.85
2022-08-04T14:56:01.215Z,22.70
2022-08-04T14:58:39.071Z,20.85
2022-08-04T15:01:12.927Z,20.77
2022-08-04T15:03:50.547Z,21.58
2022-08-04T15:06:28.518Z,22.15
2022-08-04T15:09:01.246Z,23.03
2022-08-04T15:11:32.480Z,20.85
2022-08-04T15:14:10.144Z,23.58
2022-08-04T15:17:01.125Z,23.58
2022-08-04T15:19:31.328Z,23.77
2022-08-04T15:22:04.787Z,22.33
2022-08-04T15:24:35.427Z,22.30
2022-08-04T15:27:06.027Z,22.73
2022-08-04T15:29:59.524Z,22.15
2022-08-04T15:32:41.767Z,24.42
2022-08-04T15:35:14.867Z,24.67
2022-08-04T15:38:15.048Z,23.30
2022-08-04T15:40:56.688Z,22.63
2022-08-04T15:43:45.447Z,21.60
2022-08-04T15:46:42.843Z,20.92
2022-08-04T15:49:29.403Z,21.63
2022-08-04T15:52:12.057Z,23.45
2022-08-04T15:54:52.498Z,22.27
2022-08-04T15:58:02.867Z,22.25
2022-08-04T16:01:02.788Z,21.20
2022-08-04T16:04:00.278Z,23.95
2022-08-04T16:06:29.680Z,18.52
2022-08-04T16:09:04.818Z,19.45
2022-08-04T16:11:36.725Z,23.48
2022-08-04T16:14:08.546Z,22.35
2022-08-04T16:16:42.493Z,23.13
2022-08-04T16:19:18.979Z,22.77
2022-08-04T16:22:01.327Z,21.55
2022-08-04T16:24:39.989Z,21.42
2022-08-04T16:27:11.600Z,22.95
2022-08-04T16:29:49.364Z,21.67
2022-08-04T16:32:21.769Z,22.13
2022-08-04T16:34:57.633Z,20.88
2022-08-04T16:37:32.251Z,21.38
2022-08-04T16:40:35.738Z,21.05
2022-08-04T16:43:16.866Z,20.58
2022-08-04T16:45:51.768Z,20.58
2022-08-04T16:48:26.915Z,21.07
2022-08-04T16:51:11.524Z,20.15
2022-08-04T16:54:02.870Z,20.53
2022-08-04T16:56:35.979Z,18.65
2022-08-04T16:59:11.127Z,19.23
2022-08-04T17:01:51.100Z,19.08
2022-08-04T17:04:34.189Z,19.95
2022-08-04T17:07:06.803Z,20.30
2022-08-04T17:09:37.307Z,19.60
2022-08-04T17:12:07.669Z,19.50
2022-08-04T17:14:38.731Z,20.33
2022-08-04T17:17:09.847Z,19.38
2022-08-04T17:19:40.867Z,18.13
2022-08-04T17:22:10.868Z,20.80
2022-08-04T17:24:42.070Z,19.60
2022-08-04T17:28:19.303Z,18.52
2022-08-04T17:30:02.987Z,17.52
2022-08-04T17:32:33.447Z,18.67
2022-08-04T17:35:04.255Z,18.27
2022-08-04T17:37:40.982Z,18.25
2022-08-04T17:40:25.518Z,17.67
2022-08-04T17:44:03.506Z,17.95
2022-08-04T17:46:35.589Z,17.00
2022-08-04T17:49:13.408Z,15.80
2022-08-04T17:52:04.806Z,15.48
2022-08-04T17:54:40.824Z,14.85
2022-08-04T17:57:23.402Z,14.53
2022-08-04T17:59:59.819Z,15.27
2022-08-04T18:02:35.445Z,14.95
2022-08-04T18:05:11.879Z,14.18
2022-08-04T18:08:39.153Z,13.90
2022-08-04T18:10:55.630Z,13.70
2022-08-04T18:13:29.309Z,13.95
2022-08-04T18:16:14.528Z,14.35
2022-08-04T18:19:11.677Z,14.82
2022-08-04T18:21:46.444Z,15.05
2022-08-04T18:24:36.131Z,14.77
2022-08-04T18:27:29.709Z,15.50
2022-08-04T18:30:27.982Z,13.95
2022-08-04T18:33:10.539Z,13.48
2022-08-04T18:36:33.319Z,12.85
2022-08-04T18:38:32.224Z,14.05
2022-08-04T18:41:01.585Z,14.50
2022-08-04T18:43:40.954Z,14.75
2022-08-04T18:46:14.784Z,14.75
2022-08-04T18:48:52.246Z,16.20
2022-08-04T18:51:25.274Z,16.02
2022-08-04T18:54:01.685Z,16.92
2022-08-04T18:56:34.165Z,17.67
2022-08-04T18:59:10.263Z,17.73
2022-08-04T19:02:12.886Z,19.03
2022-08-04T19:04:34.173Z,19.40
2022-08-04T19:07:29.471Z,21.58
2022-08-04T19:09:59.775Z,18.85
2022-08-04T19:12:30.226Z,18.88
2022-08-04T19:15:08.764Z,20.77
2022-08-04T19:17:53.674Z,20.30
2022-08-04T19:20:28.026Z,19.45
2022-08-04T19:24:29.532Z,19.38
2022-08-04T19:26:03.910Z,20.77
2022-08-04T19:28:38.405Z,21.17
2022-08-04T19:31:10.633Z,22.05
2022-08-04T19:33:58.358Z,21.20
2022-08-04T19:36:34.925Z,23.58
2022-08-04T19:39:12.046Z,22.08
2022-08-04T19:42:04.859Z,20.67
2022-08-04T19:44:33.502Z,20.90
2022-08-04T19:48:16.953Z,20.65
2022-08-04T19:50:04.176Z,22.13
2022-08-04T19:52:40.431Z,20.60
2022-08-04T19:55:37.111Z,21.80
2022-08-04T19:58:10.221Z,20.77
2022-08-04T20:00:50.909Z,20.13
2022-08-04T20:03:21.990Z,14.98
2022-08-04T20:05:55.841Z,14.05
2022-08-04T20:08:29.041Z,11.88
2022-08-04T20:10:59.593Z,10.60
2022-08-04T20:13:37.477Z,11.10
2022-08-04T20:16:29.267Z,10.82
2022-08-04T20:21:55.188Z,10.80
2022-08-04T20:24:37.560Z,10.00
2022-08-04T20:27:16.263Z,11.60
2022-08-04T20:29:49.828Z,11.85
2022-08-04T20:32:26.073Z,11.70
2022-08-04T20:34:57.761Z,12.75
2022-08-04T20:37:29.049Z,12.70
2022-08-04T20:40:19.129Z,13.82
2022-08-04T20:42:51.982Z,13.55
2022-08-04T20:45:22.897Z,13.05
2022-08-04T20:47:54.102Z,14.25
2022-08-04T20:50:29.566Z,13.20
2022-08-04T20:53:01.183Z,9.60
2022-08-04T20:55:30.866Z,10.23
2022-08-04T20:58:04.140Z,9.40
2022-08-04T21:00:34.724Z,8.98
2022-08-04T21:03:07.968Z,8.20
2022-08-04T21:05:37.187Z,8.52
2022-08-04T21:08:07.163Z,8.93
2022-08-04T21:10:36.785Z,7.10
2022-08-04T21:13:06.865Z,7.20
2022-08-04T21:15:58.669Z,8.85
2022-08-04T21:18:29.382Z,8.50
2022-08-04T21:20:58.707Z,8.50
2022-08-04T21:23:28.004Z,8.60
2022-08-04T21:26:04.385Z,8.60
2022-08-04T21:28:34.549Z,9.35
2022-08-04T21:31:11.043Z,8.88
2022-08-04T21:33:51.085Z,9.85
2022-08-04T21:36:21.449Z,10.18
2022-08-04T21:38:52.333Z,10.00
2022-08-04T21:41:24.572Z,12.60
2022-08-04T21:43:58.824Z,14.13
2022-08-04T21:46:30.463Z,16.42
2022-08-04T21:49:01.939Z,17.58
2022-08-04T21:51:58.942Z,18.15
2022-08-04T21:54:32.226Z,17.63
2022-08-04T21:57:03.494Z,17.95
2022-08-04T21:59:33.431Z,18.63
2022-08-04T22:02:14.926Z,18.03
2022-08-04T22:04:48.276Z,17.33
2022-08-04T22:07:18.981Z,18.45
2022-08-04T22:10:02.364Z,18.17
2022-08-04T22:12:33.992Z,18.55
2022-08-04T22:15:22.784Z,18.10
2022-08-04T22:17:58.103Z,18.67
2022-08-04T22:20:28.443Z,17.77
2022-08-04T22:23:06.014Z,18.58
2022-08-04T22:25:55.630Z,17.70
2022-08-04T22:28:28.239Z,17.80
2022-08-04T22:30:59.109Z,16.90
2022-08-04T22:33:54.873Z,16.85
2022-08-04T22:36:18.205Z,15.77
2022-08-04T22:38:50.143Z,13.98
2022-08-04T22:41:34.459Z,15.35
2022-08-04T22:44:16.103Z,14.60
2022-08-04T22:46:46.233Z,13.35
2022-08-04T22:49:17.682Z,14.68
2022-08-04T22:51:53.359Z,14.75
2022-08-04T22:54:22.627Z,15.43
2022-08-04T22:56:56.604Z,15.25
2022-08-04T22:59:25.911Z,15.18
2022-08-04T23:02:00.120Z,14.98
2022-08-04T23:04:34.451Z,15.40
2022-08-04T23:07:09.580Z,14.43
2022-08-04T23:09:50.079Z,15.45
2022-08-04T23:12:26.158Z,15.37
2022-08-04T23:15:00.179Z,14.70
2022-08-04T23:17:35.252Z,14.73
2022-08-04T23:20:23.182Z,13.40
2022-08-04T23:22:55.719Z,13.85
2022-08-04T23:25:32.964Z,13.63
2022-08-04T23:28:14.787Z,12.63
2022-08-04T23:30:45.372Z,11.27
2022-08-04T23:33:15.326Z,11.35
2022-08-04T23:35:44.521Z,10.35
2022-08-04T23:38:31.580Z,8.73
2022-08-04T23:41:13.502Z,9.40
2022-08-04T23:43:55.137Z,7.90
2022-08-04T23:46:25.414Z,7.45
2022-08-04T23:48:57.347Z,7.75
2022-08-04T23:51:26.432Z,8.00
2022-08-04T23:54:03.604Z,9.02
2022-08-04T23:56:37.994Z,9.57
2022-08-04T23:59:23.109Z,9.70
